Friday, January 19, 2018, 10:40 AM EST
Back to Local

KHPN, White Plains Westchester

Location: Greenwich, NY, United States Lat: 41.067
Local Time: 10:40 AM EST (15:40 GMT) Lon: -73.7
Time Zone: US/Eastern Elev: 439 ft

Show me the last for .
Show Decoded

2018-01-19 09:56 METAR KHPN 191456Z 27006KT 10SM FEW120 M03/M11 A3004 RMK AO2 SLP182 T10281106
                 52008 =
2018-01-19 08:56 METAR KHPN 191356Z 25004KT 8SM FEW010 M04/M11 A3003 RMK AO2 SLP182 T10391106 =
2018-01-19 07:56 METAR KHPN 191256Z 26005KT 8SM FEW080 M06/M11 A3002 RMK AO2 SLP176 T10561111 =
2018-01-19 06:56 METAR KHPN 191156Z 26005KT 9SM FEW050 M07/M12 A3001 RMK AO2 SLP175 T10671117
                 11061 21089 58000 =
2018-01-19 05:56 METAR KHPN 191056Z 26004KT 9SM CLR M07/M12 A3002 RMK AO2 SLP176 T10671117 =
2018-01-19 04:56 METAR KHPN 190956Z 00000KT 7SM CLR M08/M11 A3002 RMK AO2 SLP177 T10831106 =
2018-01-19 03:56 METAR KHPN 190856Z 26003KT 9SM CLR M07/M11 A3001 RMK AO2 SLP174 T10671111 53006
                 =
2018-01-19 02:56 METAR KHPN 190756Z 29004KT 9SM CLR M07/M11 A3000 RMK AO2 SLP170 T10671111 =
2018-01-19 01:56 METAR KHPN 190656Z 27006KT 9SM CLR M06/M11 A3000 RMK AO2 SLP170 T10611111 =
2018-01-19 00:56 METAR KHPN 190556Z 26003KT 9SM CLR M06/M11 A2999 RMK AO2 SLP168 T10611111 11044
                 21067 58016 =
2018-01-18 23:56 METAR KHPN 190456Z 27004KT 10SM CLR M06/M11 A3002 RMK AO2 SLP177 T10561106
                 410171094 =
2018-01-18 22:56 METAR KHPN 190356Z 33005KT 10SM CLR M06/M11 A3003 RMK AO2 SLP180 T10611106 =
2018-01-18 21:56 METAR KHPN 190256Z 29006KT 10SM CLR M05/M11 A3004 RMK AO2 SLP185 T10501106 53017
                 =
2018-01-18 20:56 METAR KHPN 190156Z 00000KT 10SM CLR M06/M11 A3002 RMK AO2 SLP179 T10611106 =
2018-01-18 19:56 METAR KHPN 190056Z 30003KT 10SM CLR M06/M11 A3001 RMK AO2 SLP174 T10561106 =
2018-01-18 18:56 METAR KHPN 182356Z 32004KT 10SM CLR M05/M11 A2999 RMK AO2 SLP168 T10501111 11017
                 21050 53029 =
2018-01-18 17:56 METAR KHPN 182256Z 33005KT 10SM CLR M04/M11 A2996 RMK AO2 SLP159 T10391111 =
2018-01-18 16:56 METAR KHPN 182156Z 32010KT 10SM CLR M03/M11 A2992 RMK AO2 SLP143 T10331111 =
2018-01-18 15:56 METAR KHPN 182056Z 32011KT 10SM CLR M02/M11 A2990 RMK AO2 SLP138 T10221111 55004
                 =
2018-01-18 14:56 METAR KHPN 181956Z 34012KT 10SM CLR M02/M10 A2989 RMK AO2 SLP133 T10171100 =
2018-01-18 13:56 METAR KHPN 181856Z 34012KT 10SM CLR M02/M11 A2990 RMK AO2 SLP136 T10221106 =
2018-01-18 12:56 METAR KHPN 181756Z 33009KT 10SM CLR M03/M11 A2992 RMK AO2 SLP143 T10331106 11033
                 21094 58032 =
2018-01-18 11:56 METAR KHPN 181656Z 33012KT 10SM CLR M04/M11 A2995 RMK AO2 SLP155 T10391111 =
2018-01-18 10:56 METAR KHPN 181556Z 30014KT 10SM CLR M05/M12 A3000 RMK AO2 SLP170 T10501117 =

Support USWX by starting your Amazon purchase here.